LECO/LCG METAR and TAF weather

Enter ICAO airport designator
Station Type Date Time Source
LECO METAR 2020/04/07 06:30 UTC NOAA

LECO 070630Z AUTO 17005KT CAVOK 12/10 Q1019


Station Type Date Time Source
LECO Decoded METAR 2020/04/07 06:30 UTC NOAA

La Coruna / Alvedro, Spain (LECO) 43-18N 008-23W 103M
Apr 07, 2020 - 02:30 AM EDT / 2020.04.07 0630 UTC
Wind: from the S (170 degrees) at 6 MPH (5 KT):0
Visibility: greater than 7 mile(s):0
Temperature: 53 F (12 C)
Dew Point: 50 F (10 C)
Relative Humidity: 87%
Pressure (altimeter): 30.09 in. Hg (1019 hPa)
ob: LECO 070630Z AUTO 17005KT CAVOK 12/10 Q1019
cycle: 6

Station Type Date Time Source
LECO TAF 2020/04/07 03:27 UTC NOAA

TAF LECO 070200Z 0703/0803 VRB04KT 9999 SCT040 TX19/0714Z TN10/0706Z PROB30
TEMPO 0705/0717 RA SHRA SCT030TCU PROB40
TEMPO 0713/0718 33010KT

Example: see airport list